Latest Coastal Weather Observations for Cape Otway

IDV60701

Issued at 1:41 pm EST Monday 25 May 2015 (issued every 10 minutes, with the page automatically refreshed every 10 minutes)

About coastal observations | Map of coastal stations | Coastal observations for VIC | Marine services | Other Formats
Station Details ID: 090015 Name: CAPE OTWAY LIGHTHOUSE Lat: -38.86 Lon: 143.51 Height: 82.0 m
Data from the previous 72 hours. | See also: Recent months at Cape Otway
Date/Time
EST
Temp

°C
Wind Pressure Rain
since 9am
mm
Weather Cloud Vis
km
Sea
Height
m
Swell
Dir
 
Speed
knots
Gust
knots
hPa Trend Height
m
Period
s
Dir
25/01:30pm 15.4 WNW 8 13 1029.0 - 0.0 - - - - - - -
25/01:00pm 15.2 WNW 10 13 1029.3 - 0.0 - - - - - - -
25/12:30pm 15.3 WNW 8 12 1029.5 - 0.0 - - - - - - -
25/12:00pm 15.3 WNW 8 12 1029.8 - 0.0 - - - - - - -
25/11:30am 15.1 NW 8 12 1030.2 - 0.0 - - - - - - -
25/11:00am 15.0 NW 8 12 1030.4 - 0.0 - - - - - - -
25/10:30am 14.4 NW 9 12 1030.5 - 0.0 - - - - - - -
25/10:00am 13.6 NNW 9 14 1030.4 - 0.0 - - - - - - -
25/09:30am 12.7 NNW 9 13 1030.3 - 0.0 - - - - - - -
25/09:00am 11.8 NNW 10 13 1030.5 - 0.0 - - - - - - -
25/08:30am 10.5 NNW 11 13 1030.4 - 0.0 - - - - - - -
25/08:00am 10.5 NNW 10 13 1030.3 - 0.0 - - - - - - -
25/07:30am 10.2 NNW 9 10 1030.3 - 0.0 - - - - - - -
25/07:00am 10.2 NNW 9 11 1030.1 - 0.0 - - - - - - -
25/06:30am 10.5 N 8 11 1029.9 - 0.0 - - - - - - -
25/06:00am 10.5 NNW 8 11 1029.7 - 0.0 - - - - - - -
25/05:30am 10.7 NNW 9 11 1029.6 - 0.0 - - - - - - -
25/05:00am 10.5 NNW 9 10 1029.2 - 0.0 - - - - - - -
25/04:30am 10.0 NNW 8 9 1029.1 - 0.0 - - - - - - -
25/04:00am 10.2 NNW 8 10 1029.1 - 0.0 - - - - - - -
25/03:30am 10.1 NNW 9 10 1029.1 - 0.0 - - - - - - -
25/03:00am 10.0 NNW 8 10 1029.6 - 0.0 - - - - - - -
25/02:30am 9.7 NNW 8 10 1029.6 - 0.0 - - - - - - -
25/02:00am 9.3 NNW 8 9 1029.6 - 0.0 - - - - - - -
25/01:30am 8.5 N 6 7 1029.5 - 0.0 - - - - - - -
25/01:00am 8.6 NNW 6 7 1029.6 - 0.0 - - - - - - -
25/12:30am 9.1 NNW 7 7 1029.9 - 0.0 - - - - - - -
25/12:00am 9.6 NNW 7 8 1029.8 - 0.0 - - - - - - -
 
Date/Time
EST
Temp

°C
Wind Pressure Rain
since 9am
mm
Weather Cloud Vis
km
Sea
Height
m
Swell
Dir
 
Speed
knots
Gust
knots
hPa Trend Height
m
Period
s
Dir
24/11:30pm 9.0 NNW 7 8 1030.0 - 0.0 - - - - - - -
24/11:00pm 8.7 NNW 7 7 1030.2 - 0.0 - - - - - - -
24/10:30pm 8.6 N 6 7 1030.1 - 0.0 - - - - - - -
24/10:00pm 8.3 N 7 8 1030.1 - 0.0 - - - - - - -
24/09:30pm 8.6 N 7 8 1030.1 - 0.0 - - - - - - -
24/09:00pm 8.6 N 7 7 1030.3 - 0.0 - - - - - - -
24/08:30pm 8.3 N 6 7 1030.2 - 0.0 - - - - - - -
24/08:00pm 8.2 N 7 7 1030.3 - 0.0 - - - - - - -
24/07:30pm 8.5 N 6 6 1030.3 - 0.0 - - - - - - -
24/07:00pm 8.7 N 6 7 1030.1 - 0.0 - - - - - - -
24/06:30pm 9.5 NNE 5 7 1029.8 - 0.0 - - - - - - -
24/06:00pm 10.1 NNE 6 7 1029.7 - 0.0 - - - - - - -
24/05:30pm 10.3 NNE 6 6 1029.6 - 0.0 - - - - - - -
24/05:00pm 10.8 NNE 6 7 1029.5 - 0.0 - - - - - - -
24/04:30pm 11.6 NNW 4 5 1029.4 - 0.0 - - - - - - -
24/04:00pm 12.1 WNW 5 8 1029.4 - 0.0 - - - - - - -
24/03:30pm 12.5 WNW 6 9 1029.4 - 0.0 - - - - - - -
24/03:00pm 12.7 W 6 10 1029.3 - 0.0 - - - - - - -
24/02:30pm 12.5 W 6 9 1029.4 - 0.0 - - - - - - -
24/02:00pm 12.3 W 5 7 1029.4 - 0.0 - - - - - - -
24/01:30pm 12.1 W 4 7 1029.5 - 0.0 - - - - - - -
24/01:00pm 11.5 W 3 5 1029.7 - 0.0 - - - - - - -
24/12:30pm 11.6 WSW 5 6 1029.9 - 0.0 - - - - - - -
24/12:00pm 10.8 W 4 7 1030.3 - 0.0 - - - - - - -
24/11:30am 11.1 W 5 7 1030.8 - 0.0 - - - - - - -
24/11:00am 10.8 WNW 5 7 1031.1 - 0.0 - - - - - - -
24/10:30am 10.3 NW 2 4 1031.1 - 0.0 - - - - - - -
24/10:00am 9.9 CALM 0 2 1031.1 - 0.0 - - - - - - -
24/09:30am 9.2 CALM 0 0 1031.0 - 0.0 - - - - - - -
24/09:00am 8.6 N 3 5 1031.0 - 0.0 - - - - - - -
24/08:30am 8.0 NE 7 10 1030.8 - 0.0 - - - - - - -
24/08:00am 7.6 NE 9 11 1030.6 - 0.0 - - - - - - -
24/07:30am 6.8 NE 7 9 1030.6 - 0.0 - - - - - - -
24/07:00am 6.1 NNE 7 8 1030.5 - 0.0 - - - - - - -
24/06:30am 6.2 NNE 6 7 1030.5 - 0.0 - - - - - - -
24/06:00am 7.3 N 4 5 1030.5 - 0.0 - - - - - - -
24/05:30am 7.0 NNW 6 7 1030.5 - 0.0 - - - - - - -
24/05:00am 7.0 NE 6 8 1030.0 - 0.0 - - - - - - -
24/04:30am 7.3 NE 6 9 1029.6 - 0.0 - - - - - - -
24/04:00am 7.9 ENE 7 10 1029.4 - 0.0 - - - - - - -
24/03:30am 8.4 ENE 4 7 1029.9 - 0.0 - - - - - - -
24/03:00am 8.7 NE 6 9 1030.3 - 0.0 - - - - - - -
24/02:30am 9.0 NNE 5 7 1030.4 - 0.0 - - - - - - -
24/02:00am 9.4 ENE 6 10 1030.3 - 0.0 - - - - - - -
24/01:30am 9.1 E 8 13 1030.5 - 0.0 - - - - - - -
24/01:00am 9.4 E 6 11 1030.7 - 0.0 - - - - - - -
24/12:30am 9.4 E 5 8 1030.9 - 0.0 - - - - - - -
24/12:00am 9.3 E 6 9 1031.0 - 0.0 - - - - - - -
 
Date/Time
EST
Temp

°C
Wind Pressure Rain
since 9am
mm
Weather Cloud Vis
km
Sea
Height
m
Swell
Dir
 
Speed
knots
Gust
knots
hPa Trend Height
m
Period
s
Dir
23/11:30pm 8.9 ENE 6 7 1031.1 - 0.0 - - - - - - -
23/11:00pm 8.9 N 4 7 1031.5 - 0.0 - - - - - - -
23/10:30pm 9.1 N 4 6 1031.8 - 0.0 - - - - - - -
23/10:00pm 9.2 NNE 5 6 1031.8 - 0.0 - - - - - - -
23/09:30pm 9.4 NNE 4 6 1032.0 - 0.0 - - - - - - -
23/09:00pm 9.4 NE 3 6 1032.1 - 0.0 - - - - - - -
23/08:30pm 9.7 ENE 2 4 1032.1 - 0.0 - - - - - - -
23/08:00pm 9.6 NNE 5 8 1032.1 - 0.0 - - - - - - -
23/07:30pm 9.6 NNE 5 9 1032.3 - 0.0 - - - - - - -
23/07:00pm 9.8 NE 3 5 1032.0 - 0.0 - - - - - - -
23/06:30pm 9.9 N 5 6 1032.0 - 0.0 - - - - - - -
23/06:00pm 10.2 E 3 5 1031.8 - 0.0 - - - - - - -
23/05:30pm 10.3 ESE 2 5 1031.8 - 0.0 - - - - - - -
23/05:00pm 10.2 E 2 4 1031.8 - 0.0 - - - - - - -
23/04:30pm 10.2 SE 3 8 1031.8 - 0.0 - - - - - - -
23/04:00pm 10.5 SSE 4 8 1031.8 - 0.0 - - - - - - -
23/03:30pm 11.0 SSE 3 6 1031.7 - 0.0 - - - - - - -
23/03:00pm 10.8 E 1 3 1031.8 - 0.0 - - - - - - -
23/02:30pm 10.8 S 5 7 1032.0 - 0.0 - - - - - - -
23/02:00pm 11.3 SW 3 7 1032.1 - 0.0 - - - - - - -
23/01:30pm 11.2 WSW 2 4 1032.3 - 0.0 - - - - - - -
23/01:00pm 10.9 WSW 4 7 1032.7 - 0.0 - - - - - - -
23/12:30pm 11.1 SSW 2 5 1032.7 - 0.0 - - - - - - -
23/12:00pm 11.2 SW 5 9 1033.3 - 0.0 - - - - - - -
23/11:30am 10.8 SSW 6 12 1033.7 - 0.0 - - - - - - -
23/11:00am 10.9 SSW 6 11 1033.8 - 0.0 - - - - - - -
23/10:30am 10.9 W 5 8 1033.7 - 0.0 - - - - - - -
23/10:00am 10.9 SW 4 7 1033.6 - 0.0 - - - - - - -
23/09:30am 10.3 SW 4 9 1033.6 - 0.0 - - - - - - -
23/09:00am 10.3 S 3 9 1033.6 - 0.0 - - - - - - -
23/08:30am 10.2 SSW 6 10 1033.5 - 0.0 - - - - - - -
23/08:00am 10.1 SSW 7 13 1033.4 - 0.0 - - - - - - -
23/07:30am 10.0 W 2 5 1033.3 - 0.0 - - - - - - -
23/07:00am 10.2 SW 5 9 1033.1 - 0.0 - - - - - - -
23/06:30am 10.3 SW 8 13 1032.8 - 0.0 - - - - - - -
23/06:00am 10.4 SW 5 8 1032.6 - 0.0 - - - - - - -
23/05:30am 10.4 SW 7 11 1032.3 - 0.0 - - - - - - -
23/05:00am 10.5 SW 6 10 1032.2 - 0.0 - - - - - - -
23/04:30am 10.4 SW 5 7 1032.1 - 0.0 - - - - - - -
23/04:00am 10.4 SSW 4 7 1032.1 - 0.0 - - - - - - -
23/03:30am 10.7 SSW 3 6 1032.2 - 0.0 - - - - - - -
23/03:00am 10.5 SSW 4 8 1032.2 - 0.0 - - - - - - -
23/02:30am 10.6 SSW 5 9 1032.3 - 0.0 - - - - - - -
23/02:00am 10.6 SSW 6 10 1032.4 - 0.0 - - - - - - -
23/01:30am 10.7 SSW 6 10 1032.5 - 0.0 - - - - - - -
23/01:00am 10.6 S 2 7 1032.6 - 0.0 - - - - - - -
23/12:30am 10.9 SSW 4 8 1032.7 - 0.0 - - - - - - -
23/12:00am 10.9 SSW 5 11 1032.8 - 0.0 - - - - - - -
 
Date/Time
EST
Temp

°C
Wind Pressure Rain
since 9am
mm
Weather Cloud Vis
km
Sea
Height
m
Swell
Dir
 
Speed
knots
Gust
knots
hPa Trend Height
m
Period
s
Dir
22/11:30pm 11.2 SSW 8 13 1032.8 - 0.0 - - - - - - -
22/11:00pm 11.1 S 5 10 1032.9 - 0.0 - - - - - - -
22/10:30pm 11.3 SW 6 9 1032.9 - 0.0 - - - - - - -
22/10:00pm 11.2 SSW 10 14 1033.0 - 0.0 - - - - - - -
22/09:30pm 11.1 SSW 5 7 1032.9 - 0.0 - - - - - - -
22/09:00pm 11.3 SSW 7 11 1032.9 - 0.0 - - - - - - -
22/08:30pm 11.0 SW 7 10 1032.8 - 0.0 - - - - - - -
22/08:00pm 11.3 SW 9 13 1032.5 - 0.0 - - - - - - -
22/07:30pm 11.2 SSW 8 12 1032.5 - 0.0 - - - - - - -
22/07:00pm 11.1 SW 6 10 1032.3 - 0.0 - - - - - - -
22/06:30pm 11.3 SSW 9 15 1032.1 - 0.0 - - - - - - -
22/06:00pm 11.4 SW 5 9 1031.9 - 0.0 - - - - - - -
22/05:30pm 11.2 SSW 10 15 1031.7 - 0.0 - - - - - - -
22/05:00pm 11.2 SSW 8 13 1031.6 - 0.0 - - - - - - -
22/04:30pm 11.2 SW 8 11 1031.6 - 0.0 - - - - - - -
22/04:00pm 11.3 SSW 6 8 1031.7 - 0.0 - - - - - - -
22/03:30pm 11.4 SSW 8 15 1031.5 - 0.0 - - - - - - -
22/03:00pm 11.4 SW 6 13 1031.4 - 0.0 - - - - - - -
22/02:30pm 11.5 SW 7 11 1031.2 - 0.0 - - - - - - -
22/02:00pm 11.5 SW 6 9 1031.2 - 0.0 - - - - - - -

Other Formats:

Comma delimited format used in spreadsheet applications
http://www.bom.gov.au/fwo/IDV60701/IDV60701.94842.axf

JavaScript Object Notation format (JSON) in row-major order
http://www.bom.gov.au/fwo/IDV60701/IDV60701.94842.json